Time;durP1;ratioP1;P1;durP2;ratioP2;P2;SDS_P1;SDS_P2;PMS_P1;PMS_P2;Temp;Humidity;BMP_temperature;BMP_pressure;BME280_temperature;BME280_humidity;BME280_pressure;Samples;Min_cycle;Max_cycle;Signal;HPM_P1;HPM_P2
2023/03/29 00:01:51;;;;;;;4.93;3.10;;;10.40;59.40;;;;;;5025833;28;20137;-47
2023/03/29 00:04:26;;;;;;;3.70;2.72;;;10.50;59.40;;;;;;5022392;28;20065;-49
2023/03/29 00:06:54;;;;;;;4.43;3.15;;;10.40;59.40;;;;;;5012879;28;20149;-46
2023/03/29 00:09:20;;;;;;;3.42;2.72;;;10.40;59.40;;;;;;5024316;28;20048;-50
2023/03/29 00:11:47;;;;;;;2.83;2.53;;;10.40;59.60;;;;;;5027997;28;20042;-50
2023/03/29 00:14:18;;;;;;;4.75;2.90;;;10.40;59.70;;;;;;5024871;28;20041;-48
2023/03/29 00:16:45;;;;;;;4.75;3.22;;;10.40;59.90;;;;;;5028980;28;20050;-45
2023/03/29 00:19:16;;;;;;;5.18;3.45;;;10.30;59.70;;;;;;5032934;28;20034;-48
2023/03/29 00:21:49;;;;;;;4.65;2.67;;;10.30;59.70;;;;;;5028620;28;20054;-46
2023/03/29 00:24:15;;;;;;;3.90;2.80;;;10.30;59.80;;;;;;5032719;28;20525;-46
2023/03/29 00:26:44;;;;;;;4.57;2.50;;;10.30;59.90;;;;;;5015030;28;20057;-46
2023/03/29 00:29:10;;;;;;;3.88;2.65;;;10.30;60.00;;;;;;5025246;28;20133;-47
2023/03/29 00:31:39;;;;;;;3.22;2.72;;;10.30;60.10;;;;;;5023796;28;20092;-48
2023/03/29 00:34:09;;;;;;;3.63;2.70;;;10.30;60.30;;;;;;5014074;28;20049;-46
2023/03/29 00:36:35;;;;;;;5.68;3.35;;;10.30;60.40;;;;;;5017692;28;20041;-49
2023/03/29 00:39:17;;;;;;;4.03;2.75;;;10.40;61.20;;;;;;5000027;28;20049;-46
2023/03/29 00:41:52;;;;;;;4.25;3.17;;;10.40;60.50;;;;;;5014324;28;20052;-47
2023/03/29 00:45:03;;;;;;;4.28;2.92;;;10.40;60.70;;;;;;5015214;28;20045;-47
2023/03/29 00:47:36;;;;;;;6.55;3.00;;;10.40;61.40;;;;;;5011142;28;20103;-48
2023/03/29 00:50:30;;;;;;;3.72;3.03;;;10.40;60.70;;;;;;5018053;28;20046;-49
2023/03/29 00:53:16;;;;;;;6.00;3.25;;;10.50;61.40;;;;;;5004060;28;20517;-49
2023/03/29 00:56:06;;;;;;;4.80;3.47;;;10.40;61.00;;;;;;5027608;28;20496;-47
2023/03/29 00:58:48;;;;;;;4.93;3.17;;;10.50;61.10;;;;;;5027938;28;20044;-49
2023/03/29 01:01:24;;;;;;;3.03;2.72;;;10.40;60.90;;;;;;5019944;28;20084;-46
2023/03/29 01:03:58;;;;;;;4.70;2.53;;;10.50;60.60;;;;;;5023640;28;20128;-48
2023/03/29 01:06:28;;;;;;;3.33;2.47;;;10.50;61.20;;;;;;5011584;28;20095;-48
2023/03/29 01:09:00;;;;;;;5.32;3.05;;;10.50;60.60;;;;;;5011935;28;20076;-50
2023/03/29 01:11:45;;;;;;;4.07;2.67;;;10.50;60.70;;;;;;5022918;28;20540;-48
2023/03/29 01:14:32;;;;;;;3.35;2.88;;;10.50;61.00;;;;;;5005486;28;20049;-48
2023/03/29 01:16:59;;;;;;;4.30;3.13;;;10.50;61.30;;;;;;5007875;28;20045;-49
2023/03/29 01:19:30;;;;;;;3.53;2.90;;;10.50;60.60;;;;;;5026827;28;20038;-47
2023/03/29 01:22:12;;;;;;;5.18;3.33;;;10.50;60.80;;;;;;4995634;28;20046;-46
2023/03/29 01:25:10;;;;;;;4.47;2.78;;;10.50;61.00;;;;;;5011143;28;20058;-48
2023/03/29 01:27:39;;;;;;;3.08;2.63;;;10.50;61.10;;;;;;5020118;28;20049;-50
2023/03/29 01:30:14;;;;;;;4.25;3.00;;;10.60;60.80;;;;;;5016931;28;20045;-48
2023/03/29 01:33:11;;;;;;;4.38;3.17;;;10.60;61.20;;;;;;5017866;28;20048;-50
2023/03/29 01:35:47;;;;;;;3.05;2.55;;;10.60;61.40;;;;;;5025976;28;20030;-49
2023/03/29 01:38:27;;;;;;;3.90;2.90;;;10.60;61.20;;;;;;5008010;28;20136;-50
2023/03/29 01:40:54;;;;;;;4.53;3.17;;;10.60;61.20;;;;;;5017328;28;20064;-47
2023/03/29 01:43:30;;;;;;;4.03;3.17;;;10.60;60.90;;;;;;5026610;28;20046;-50
2023/03/29 01:46:03;;;;;;;4.07;3.13;;;10.60;61.20;;;;;;5013073;28;20049;-48
2023/03/29 01:48:37;;;;;;;7.00;4.28;;;10.60;61.30;;;;;;5025610;28;20038;-47
2023/03/29 01:51:13;;;;;;;3.72;2.65;;;10.60;61.30;;;;;;5020089;28;20402;-48
2023/03/29 01:53:49;;;;;;;3.78;2.72;;;10.60;61.10;;;;;;5026095;28;20049;-50
2023/03/29 01:56:27;;;;;;;4.20;2.83;;;10.60;61.30;;;;;;5020110;28;20438;-47
2023/03/29 01:59:04;;;;;;;5.25;3.30;;;10.60;61.60;;;;;;5022731;28;20049;-46
2023/03/29 02:01:39;;;;;;;3.80;2.83;;;10.70;61.60;;;;;;5023286;28;20049;-47
2023/03/29 02:04:12;;;;;;;3.42;2.60;;;10.70;61.40;;;;;;4995672;28;20068;-49
2023/03/29 02:06:39;;;;;;;4.03;2.75;;;10.70;61.30;;;;;;5016192;28;20054;-48
2023/03/29 02:09:08;;;;;;;4.50;2.75;;;10.70;61.30;;;;;;5015442;28;20045;-48
2023/03/29 02:11:36;;;;;;;3.53;2.67;;;10.70;61.40;;;;;;5007580;28;20041;-47
2023/03/29 02:14:06;;;;;;;3.10;2.80;;;10.70;61.50;;;;;;5013226;28;20037;-48
2023/03/29 02:16:39;;;;;;;4.18;3.22;;;10.70;61.40;;;;;;5022423;28;20033;-49
2023/03/29 02:19:08;;;;;;;3.65;2.92;;;10.70;61.60;;;;;;5018398;28;20037;-49
2023/03/29 02:21:41;;;;;;;3.58;2.55;;;10.80;61.40;;;;;;5022136;28;20045;-46
2023/03/29 02:24:14;;;;;;;4.82;3.08;;;10.80;61.60;;;;;;5020860;28;20056;-47
2023/03/29 02:26:43;;;;;;;3.42;2.72;;;10.80;61.60;;;;;;5000989;28;20045;-47
2023/03/29 02:29:13;;;;;;;3.78;3.30;;;10.80;61.50;;;;;;5020392;28;20095;-49
2023/03/29 02:31:48;;;;;;;3.45;2.70;;;10.80;61.50;;;;;;5014344;28;20096;-49
2023/03/29 02:34:20;;;;;;;4.47;3.13;;;10.80;61.60;;;;;;5011619;28;20064;-49
2023/03/29 02:36:55;;;;;;;3.60;3.10;;;10.80;61.80;;;;;;5027903;28;20052;-50
2023/03/29 02:39:26;;;;;;;2.85;2.40;;;10.80;61.80;;;;;;5005138;28;20064;-49
2023/03/29 02:41:57;;;;;;;6.35;3.20;;;10.80;61.60;;;;;;4999980;28;20200;-46
2023/03/29 02:44:28;;;;;;;5.60;2.38;;;10.80;61.50;;;;;;5013189;28;20048;-46
2023/03/29 02:47:02;;;;;;;3.40;2.25;;;10.80;61.60;;;;;;5024360;28;20050;-50
2023/03/29 02:49:31;;;;;;;3.08;2.78;;;10.80;61.50;;;;;;5016329;28;20045;-49
2023/03/29 02:52:11;;;;;;;4.00;3.10;;;10.80;61.50;;;;;;5003915;28;20050;-45
2023/03/29 02:54:44;;;;;;;4.05;2.70;;;10.90;61.60;;;;;;5014133;28;20050;-47
2023/03/29 02:57:14;;;;;;;2.53;2.38;;;10.90;61.70;;;;;;5010747;28;20494;-49
2023/03/29 02:59:43;;;;;;;3.40;2.55;;;10.90;61.60;;;;;;5023391;28;20041;-47
2023/03/29 03:02:10;;;;;;;3.28;2.17;;;10.90;61.30;;;;;;5009828;28;20682;-50
2023/03/29 03:04:45;;;;;;;2.50;1.88;;;10.90;61.10;;;;;;4995868;28;20045;-48
2023/03/29 03:07:14;;;;;;;4.53;2.08;;;10.90;61.00;;;;;;5021661;28;20124;-49
2023/03/29 03:09:41;;;;;;;2.45;2.05;;;10.90;61.00;;;;;;5029588;28;20502;-49
2023/03/29 03:12:13;;;;;;;3.72;2.40;;;10.90;61.50;;;;;;5020012;28;20061;-49
2023/03/29 03:14:40;;;;;;;3.17;2.10;;;10.90;62.00;;;;;;5014598;28;20053;-50
2023/03/29 03:17:10;;;;;;;2.75;1.98;;;10.90;61.60;;;;;;5029323;28;20501;-49
2023/03/29 03:19:38;;;;;;;3.17;1.85;;;10.90;61.60;;;;;;5028298;28;20087;-50
2023/03/29 03:22:10;;;;;;;3.78;1.85;;;10.90;61.80;;;;;;5020879;28;20041;-49
2023/03/29 03:24:37;;;;;;;3.42;1.67;;;10.90;62.00;;;;;;5020839;28;20539;-49
2023/03/29 03:27:07;;;;;;;4.63;2.42;;;11.00;62.30;;;;;;5019242;28;20092;-46
2023/03/29 03:29:37;;;;;;;3.53;1.90;;;11.00;62.70;;;;;;5001171;28;20127;-46
2023/03/29 03:32:32;;;;;;;2.92;1.85;;;11.00;62.70;;;;;;5009392;28;20045;-49
2023/03/29 03:35:20;;;;;;;3.60;2.33;;;11.00;62.60;;;;;;5020710;28;20601;-46
2023/03/29 03:37:47;;;;;;;1.42;1.30;;;11.00;62.70;;;;;;5017143;28;20056;-46
2023/03/29 03:40:19;;;;;;;3.22;1.80;;;11.00;62.80;;;;;;5011173;28;20033;-46
2023/03/29 03:42:48;;;;;;;2.90;2.13;;;11.10;62.90;;;;;;4997111;28;20047;-45
2023/03/29 03:45:16;;;;;;;2.58;2.10;;;11.10;62.90;;;;;;5004634;28;20050;-52
2023/03/29 03:48:06;;;;;;;4.07;1.88;;;11.10;63.10;;;;;;5009229;28;20077;-46
2023/03/29 03:50:57;;;;;;;2.33;2.13;;;11.10;63.00;;;;;;5006236;28;20053;-48
2023/03/29 03:53:27;;;;;;;1.85;1.75;;;11.10;63.70;;;;;;5011406;28;20387;-50
2023/03/29 03:56:12;;;;;;;2.60;1.85;;;11.10;63.00;;;;;;5029316;28;20053;-47
2023/03/29 03:59:01;;;;;;;4.88;2.03;;;11.10;62.90;;;;;;5000199;28;20037;-49
2023/03/29 04:01:34;;;;;;;3.17;2.28;;;11.10;62.80;;;;;;5009427;28;20103;-45
2023/03/29 04:04:13;;;;;;;2.50;2.22;;;11.10;62.80;;;;;;5016288;28;20136;-50
2023/03/29 04:07:01;;;;;;;3.63;2.20;;;11.10;62.80;;;;;;5022080;28;20053;-47
2023/03/29 04:09:52;;;;;;;4.20;2.28;;;11.10;62.70;;;;;;5026705;28;20060;-47
2023/03/29 04:12:39;;;;;;;2.65;2.35;;;11.10;62.60;;;;;;5005047;28;20379;-47
2023/03/29 04:15:09;;;;;;;3.20;2.30;;;11.10;62.60;;;;;;5025975;28;20095;-47
2023/03/29 04:17:42;;;;;;;4.57;2.15;;;11.10;62.70;;;;;;5017208;28;20128;-46
2023/03/29 04:20:43;;;;;;;4.47;2.53;;;11.10;62.90;;;;;;4977807;28;20414;-48
2023/03/29 04:23:11;;;;;;;3.28;2.03;;;11.10;62.60;;;;;;5001648;28;20131;-48
2023/03/29 04:25:42;;;;;;;3.25;2.20;;;11.10;62.60;;;;;;5016197;28;20108;-49
2023/03/29 04:28:27;;;;;;;2.95;2.17;;;11.10;62.50;;;;;;5016215;28;20048;-47
2023/03/29 04:31:13;;;;;;;4.90;2.58;;;11.10;62.60;;;;;;5020172;28;20052;-48
2023/03/29 04:33:47;;;;;;;1.88;1.63;;;11.10;62.60;;;;;;5003414;28;20476;-45
2023/03/29 04:36:17;;;;;;;3.03;1.80;;;11.10;62.60;;;;;;5015436;28;20036;-46
2023/03/29 04:38:46;;;;;;;3.13;2.28;;;11.10;62.90;;;;;;5016802;28;20424;-47
2023/03/29 04:41:14;;;;;;;2.60;2.25;;;11.10;63.10;;;;;;4999584;28;20046;-46
2023/03/29 04:43:55;;;;;;;2.17;1.92;;;11.10;63.10;;;;;;5013535;28;20073;-51
2023/03/29 04:46:26;;;;;;;2.22;1.95;;;11.10;62.90;;;;;;4996336;28;20050;-47
2023/03/29 04:49:13;;;;;;;2.28;2.08;;;11.10;62.80;;;;;;5005648;28;20103;-50
2023/03/29 04:51:44;;;;;;;4.13;2.03;;;11.10;62.70;;;;;;5005230;28;20137;-50
2023/03/29 04:54:11;;;;;;;2.78;1.90;;;11.20;62.60;;;;;;5021305;28;20045;-50
2023/03/29 04:56:55;;;;;;;5.05;2.35;;;11.20;62.60;;;;;;5005002;28;20048;-47
2023/03/29 04:59:33;;;;;;;3.80;2.10;;;11.20;62.90;;;;;;5003160;28;20692;-48
2023/03/29 05:02:07;;;;;;;2.40;1.95;;;11.20;62.80;;;;;;5006029;28;20045;-47
2023/03/29 05:04:35;;;;;;;3.50;2.20;;;11.20;62.60;;;;;;5005943;28;20049;-47
2023/03/29 05:07:11;;;;;;;3.33;1.90;;;11.20;62.60;;;;;;5001080;28;20358;-47
2023/03/29 05:09:40;;;;;;;2.28;2.08;;;11.20;62.70;;;;;;5008749;28;20049;-47
2023/03/29 05:12:08;;;;;;;2.80;2.05;;;11.20;62.50;;;;;;5012698;28;20057;-47
2023/03/29 05:14:47;;;;;;;2.60;1.88;;;11.20;62.50;;;;;;5007691;28;20042;-46
2023/03/29 05:17:17;;;;;;;2.58;2.10;;;11.30;62.50;;;;;;5008424;28;20046;-47
2023/03/29 05:19:45;;;;;;;2.88;2.22;;;11.30;62.40;;;;;;5005407;28;20042;-49
2023/03/29 05:22:13;;;;;;;3.22;2.15;;;11.20;61.70;;;;;;5007762;28;20124;-47
2023/03/29 05:24:40;;;;;;;2.58;2.33;;;11.30;61.60;;;;;;5015219;28;20099;-46
2023/03/29 05:27:12;;;;;;;4.13;2.28;;;11.30;61.60;;;;;;4997862;28;20573;-46
2023/03/29 05:29:40;;;;;;;3.22;2.60;;;11.30;61.50;;;;;;5016449;28;20041;-46
2023/03/29 05:32:25;;;;;;;3.63;2.08;;;11.30;61.50;;;;;;5004216;28;20061;-48
2023/03/29 05:34:51;;;;;;;3.17;2.13;;;11.30;61.30;;;;;;5009960;28;20045;-47
2023/03/29 05:37:19;;;;;;;3.33;2.58;;;11.40;61.10;;;;;;5012937;28;20391;-47
2023/03/29 05:39:51;;;;;;;2.42;1.77;;;11.40;61.10;;;;;;5003977;28;20088;-46
2023/03/29 05:42:21;;;;;;;3.35;1.70;;;11.40;60.90;;;;;;5010029;28;20045;-46
2023/03/29 05:44:57;;;;;;;3.60;1.80;;;11.40;60.70;;;;;;5015780;28;20824;-47
2023/03/29 05:47:24;;;;;;;2.78;2.17;;;11.40;60.60;;;;;;5006841;28;20049;-46
2023/03/29 05:49:51;;;;;;;2.10;1.90;;;11.40;60.70;;;;;;5028490;28;20091;-51
2023/03/29 05:52:23;;;;;;;4.00;2.45;;;11.50;60.50;;;;;;5004306;28;20176;-49
2023/03/29 05:54:50;;;;;;;4.80;2.13;;;11.50;60.40;;;;;;5026484;28;20052;-48
2023/03/29 05:57:17;;;;;;;3.03;2.00;;;11.50;60.20;;;;;;4993675;28;20100;-50
2023/03/29 05:59:45;;;;;;;2.88;2.15;;;11.50;60.30;;;;;;5002319;28;20080;-47
2023/03/29 06:02:14;;;;;;;3.63;1.80;;;11.50;60.30;;;;;;5016887;28;20104;-47
2023/03/29 06:04:47;;;;;;;1.65;1.55;;;11.60;60.40;;;;;;5004711;28;20104;-47
2023/03/29 06:07:23;;;;;;;4.88;1.80;;;11.60;60.10;;;;;;5019401;28;20476;-47
2023/03/29 06:10:14;;;;;;;1.67;1.58;;;11.70;60.10;;;;;;5012805;28;20600;-49
2023/03/29 06:12:49;;;;;;;2.20;1.80;;;11.70;59.90;;;;;;5016735;28;20069;-47
2023/03/29 06:15:18;;;;;;;2.40;2.13;;;11.70;59.80;;;;;;5006990;28;20526;-48
2023/03/29 06:17:48;;;;;;;4.15;2.00;;;11.70;59.80;;;;;;5010385;28;20073;-46
2023/03/29 06:20:15;;;;;;;3.35;1.92;;;11.80;59.70;;;;;;5009905;28;20077;-48
2023/03/29 06:22:47;;;;;;;2.45;1.75;;;11.80;59.70;;;;;;4998502;28;20061;-46
2023/03/29 06:25:14;;;;;;;2.25;1.45;;;11.80;59.60;;;;;;5008535;28;20096;-49
2023/03/29 06:27:45;;;;;;;3.40;1.88;;;11.80;59.50;;;;;;5004806;28;20072;-49
2023/03/29 06:30:14;;;;;;;2.40;1.65;;;11.90;59.60;;;;;;5003260;28;20101;-48
2023/03/29 06:32:45;;;;;;;2.63;1.88;;;11.90;59.50;;;;;;5001486;28;20433;-47
2023/03/29 06:35:29;;;;;;;3.53;2.22;;;12.00;59.70;;;;;;5021872;28;20092;-49
2023/03/29 06:38:04;;;;;;;3.88;2.05;;;12.00;59.40;;;;;;5016695;28;20049;-46
2023/03/29 06:41:05;;;;;;;4.05;2.03;;;12.00;59.50;;;;;;5023359;28;20601;-49
2023/03/29 06:43:52;;;;;;;5.40;2.25;;;12.10;59.60;;;;;;5003248;28;20061;-46
2023/03/29 06:46:28;;;;;;;3.13;1.90;;;12.10;59.40;;;;;;5009547;28;20047;-47
2023/03/29 06:48:59;;;;;;;3.88;2.22;;;12.10;59.30;;;;;;5016923;28;20041;-50
2023/03/29 06:51:35;;;;;;;3.88;1.98;;;12.20;59.40;;;;;;5019477;28;20642;-50
2023/03/29 06:54:03;;;;;;;7.35;2.17;;;12.20;59.40;;;;;;5014627;28;20128;-49
2023/03/29 06:56:30;;;;;;;2.90;1.75;;;12.20;59.40;;;;;;5001251;28;20037;-48
2023/03/29 06:59:04;;;;;;;1.90;1.67;;;12.20;59.50;;;;;;5006625;28;20686;-47
2023/03/29 07:01:39;;;;;;;3.80;1.98;;;12.30;59.60;;;;;;4997009;28;20506;-47
2023/03/29 07:04:16;;;;;;;3.55;2.17;;;12.30;59.60;;;;;;5022471;28;20048;-48
2023/03/29 07:07:04;;;;;;;3.55;2.05;;;12.30;59.60;;;;;;5023238;28;20288;-46
2023/03/29 07:09:34;;;;;;;4.70;2.17;;;12.40;59.80;;;;;;5011952;28;20037;-47
2023/03/29 07:12:38;;;;;;;4.32;2.10;;;12.40;59.80;;;;;;5028481;28;20122;-48
2023/03/29 07:15:05;;;;;;;4.90;1.80;;;12.50;60.00;;;;;;5002053;28;20049;-47
2023/03/29 07:17:52;;;;;;;3.10;1.65;;;12.50;60.20;;;;;;5023355;28;20099;-46
2023/03/29 07:20:20;;;;;;;3.33;2.30;;;12.60;60.10;;;;;;5025256;28;20045;-50
2023/03/29 07:22:56;;;;;;;3.10;2.15;;;12.60;60.30;;;;;;4992431;28;20458;-47
2023/03/29 07:25:24;;;;;;;3.30;2.35;;;12.70;60.30;;;;;;5015508;28;20422;-48
2023/03/29 07:27:55;;;;;;;3.17;2.10;;;12.70;60.20;;;;;;5005743;28;20045;-50
2023/03/29 07:30:26;;;;;;;4.53;2.27;;;12.80;60.30;;;;;;4998670;28;20510;-48
2023/03/29 07:33:09;;;;;;;3.42;2.40;;;12.90;60.40;;;;;;4996299;28;20503;-49
2023/03/29 07:35:42;;;;;;;;;;;12.90;60.10;;;;;;5005968;28;20080;-47
2023/03/29 07:38:09;;;;;;;3.65;2.03;;;13.00;60.30;;;;;;5020039;28;19921;-47
2023/03/29 07:40:40;;;;;;;2.40;2.03;;;13.10;60.00;;;;;;4997345;28;20813;-48
2023/03/29 07:43:25;;;;;;;3.35;1.77;;;13.20;59.90;;;;;;5018807;28;20060;-51
2023/03/29 07:46:03;;;;;;;5.10;2.38;;;13.30;59.80;;;;;;5000243;28;20082;-47
2023/03/29 07:48:32;;;;;;;2.65;2.05;;;13.40;59.60;;;;;;5011528;28;20153;-51
2023/03/29 07:51:05;;;;;;;2.40;2.20;;;13.40;59.60;;;;;;5002824;28;20671;-50
2023/03/29 07:53:40;;;;;;;3.75;2.08;;;13.50;59.50;;;;;;5002869;28;20580;-49
2023/03/29 07:56:23;;;;;;;;;;;13.60;59.40;;;;;;5025946;28;20103;-47
2023/03/29 07:59:01;;;;;;;2.75;1.70;;;13.70;59.60;;;;;;5006628;28;19929;-49
2023/03/29 08:01:28;;;;;;;2.85;2.22;;;13.70;59.20;;;;;;5020000;28;20052;-49
2023/03/29 08:04:01;;;;;;;2.42;2.00;;;13.80;58.90;;;;;;5017612;28;20050;-48
2023/03/29 08:06:48;;;;;;;2.22;2.00;;;13.80;59.00;;;;;;5011168;28;20046;-47
2023/03/29 08:09:16;;;;;;;3.22;2.10;;;13.80;58.80;;;;;;5021910;28;20506;-48
2023/03/29 08:11:45;;;;;;;3.72;2.08;;;13.90;58.80;;;;;;5012715;28;20100;-48
2023/03/29 08:14:22;;;;;;;2.72;1.90;;;13.90;58.80;;;;;;5001435;28;20052;-47
2023/03/29 08:17:07;;;;;;;2.28;1.90;;;13.90;58.80;;;;;;5007417;28;20050;-47
2023/03/29 08:19:39;;;;;;;;;;;13.90;58.70;;;;;;5007102;28;20140;-46
2023/03/29 08:22:19;;;;;;;5.85;2.13;;;14.00;58.90;;;;;;5019184;28;20007;-49
2023/03/29 08:25:17;;;;;;;3.47;2.00;;;14.00;58.60;;;;;;5011746;28;20046;-49
2023/03/29 08:27:48;;;;;;;3.20;2.10;;;14.10;58.70;;;;;;5012302;28;20057;-48
2023/03/29 08:30:23;;;;;;;3.15;1.80;;;14.00;58.60;;;;;;5024679;28;20115;-48
2023/03/29 08:32:53;;;;;;;3.60;2.10;;;14.10;58.70;;;;;;5004391;28;20568;-51
2023/03/29 08:35:21;;;;;;;5.60;2.67;;;14.10;58.80;;;;;;5006534;28;20042;-48
2023/03/29 08:38:09;;;;;;;2.22;1.95;;;14.10;58.70;;;;;;5007507;28;20108;-47
2023/03/29 08:40:36;;;;;;;3.95;1.83;;;14.20;58.70;;;;;;5005691;28;20048;-47
2023/03/29 08:43:15;;;;;;;3.25;2.22;;;14.30;58.70;;;;;;5017947;28;20049;-47
2023/03/29 08:46:34;;;;;;;2.08;1.85;;;14.30;58.40;;;;;;5022658;28;20052;-50
2023/03/29 08:49:18;;;;;;;2.53;2.20;;;14.40;58.50;;;;;;5031031;28;20180;-50
2023/03/29 08:52:13;;;;;;;3.53;1.50;;;14.40;58.40;;;;;;5007049;28;20064;-46
2023/03/29 08:54:44;;;;;;;2.67;2.10;;;14.40;58.20;;;;;;5003727;28;20052;-47
2023/03/29 08:57:47;;;;;;;2.58;1.83;;;14.50;58.40;;;;;;4992670;28;20056;-48
2023/03/29 09:00:42;;;;;;;3.42;2.33;;;14.50;58.30;;;;;;5008131;28;20464;-47
2023/03/29 09:03:22;;;;;;;3.95;2.53;;;14.60;58.30;;;;;;5024745;28;20045;-48
2023/03/29 09:05:58;;;;;;;2.90;2.08;;;14.70;58.20;;;;;;5007326;28;20152;-46
2023/03/29 09:08:26;;;;;;;3.63;2.03;;;14.80;57.70;;;;;;5018415;28;20045;-47
2023/03/29 09:11:03;;;;;;;5.57;2.58;;;14.80;57.60;;;;;;5006929;28;20056;-49
2023/03/29 09:13:48;;;;;;;3.20;2.10;;;14.80;57.60;;;;;;5029845;28;20137;-47
2023/03/29 09:16:31;;;;;;;2.90;2.10;;;14.90;57.60;;;;;;4994729;28;20038;-48
2023/03/29 09:19:18;;;;;;;2.67;2.38;;;15.00;57.40;;;;;;5018706;28;20284;-47
2023/03/29 09:22:14;;;;;;;6.38;2.40;;;15.00;57.50;;;;;;5007573;28;20514;-48
2023/03/29 09:25:29;;;;;;;3.40;2.05;;;15.00;57.40;;;;;;5052439;23;20049;-51
2023/03/29 09:28:13;;;;;;;3.08;2.10;;;15.10;57.30;;;;;;5034790;28;20489;-54
2023/03/29 09:31:12;;;;;;;5.45;2.33;;;15.10;57.30;;;;;;5044182;28;20041;-51
2023/03/29 09:33:43;;;;;;;4.63;2.60;;;15.20;57.30;;;;;;5032622;28;20044;-54
2023/03/29 09:36:25;;;;;;;3.42;2.40;;;15.20;57.10;;;;;;5025844;28;20049;-53
2023/03/29 09:38:55;;;;;;;4.30;2.75;;;15.30;57.10;;;;;;5029486;28;20045;-50
2023/03/29 09:41:40;;;;;;;4.57;2.67;;;15.40;57.10;;;;;;5029109;28;20041;-51
2023/03/29 09:44:12;;;;;;;3.75;3.03;;;15.50;57.00;;;;;;5025716;28;20042;-50
2023/03/29 09:47:07;;;;;;;2.45;2.10;;;15.50;57.00;;;;;;5029381;28;20806;-50
2023/03/29 09:49:40;;;;;;;5.63;2.50;;;15.60;56.80;;;;;;5030350;28;20037;-54
2023/03/29 09:52:15;;;;;;;6.30;2.50;;;15.70;56.60;;;;;;5028405;28;20707;-51
2023/03/29 09:54:50;;;;;;;4.15;2.30;;;15.80;56.20;;;;;;5028972;28;20064;-52
2023/03/29 09:57:39;;;;;;;3.63;2.00;;;15.90;56.30;;;;;;5020160;28;20108;-50
2023/03/29 10:00:09;;;;;;;2.70;2.25;;;16.00;56.40;;;;;;5043134;28;20195;-53
2023/03/29 10:02:51;;;;;;;4.43;2.65;;;16.00;55.80;;;;;;5029266;28;20096;-52
2023/03/29 10:05:28;;;;;;;5.85;2.42;;;16.20;56.10;;;;;;5029684;28;20422;-50
2023/03/29 10:08:00;;;;;;;3.70;1.85;;;16.20;55.90;;;;;;5027977;28;20421;-53
2023/03/29 10:10:29;;;;;;;4.60;2.00;;;16.30;56.10;;;;;;5022731;28;20092;-50
2023/03/29 10:13:02;;;;;;;3.10;2.03;;;16.40;56.00;;;;;;5028684;28;20037;-55
2023/03/29 10:15:29;;;;;;;;;;;16.50;55.40;;;;;;5023528;28;20497;-53
2023/03/29 10:18:02;;;;;;;2.85;2.03;;;16.60;55.80;;;;;;5025336;28;19928;-54
2023/03/29 10:20:29;;;;;;;2.33;1.77;;;16.70;55.70;;;;;;5031340;28;20494;-51
2023/03/29 10:22:58;;;;;;;5.25;2.75;;;16.80;55.30;;;;;;5032331;28;20123;-51
2023/03/29 10:25:28;;;;;;;5.72;2.63;;;16.90;55.20;;;;;;5022034;28;20046;-50
2023/03/29 10:28:02;;;;;;;2.88;2.00;;;17.00;55.30;;;;;;5022755;28;20049;-51
2023/03/29 10:30:33;;;;;;;3.63;2.47;;;17.00;55.00;;;;;;5024488;28;20049;-55
2023/03/29 10:33:00;;;;;;;2.72;1.80;;;17.10;55.00;;;;;;5029453;28;20044;-51
2023/03/29 10:35:36;;;;;;;3.58;2.67;;;17.30;55.20;;;;;;5030274;28;20120;-53
2023/03/29 10:38:11;;;;;;;3.10;1.70;;;17.40;54.50;;;;;;5028190;28;20779;-54
2023/03/29 10:40:43;;;;;;;;;;;17.60;54.20;;;;;;5022016;28;20046;-55
2023/03/29 10:43:13;;;;;;;3.85;2.20;;;17.70;54.40;;;;;;5024930;28;19921;-53
2023/03/29 10:45:41;;;;;;;6.63;2.53;;;17.80;54.10;;;;;;5020515;28;20054;-52
2023/03/29 10:48:12;;;;;;;3.97;2.20;;;17.80;53.60;;;;;;5028950;28;20117;-53
2023/03/29 10:50:40;;;;;;;2.97;2.35;;;17.80;53.00;;;;;;5025087;28;20049;-53
2023/03/29 10:53:34;;;;;;;3.55;2.30;;;17.80;53.20;;;;;;5021022;28;20041;-54
2023/03/29 10:56:24;;;;;;;3.63;2.40;;;17.80;53.20;;;;;;5026668;28;20041;-56
2023/03/29 10:58:57;;;;;;;2.20;2.00;;;17.70;53.40;;;;;;5018893;28;20054;-51
2023/03/29 11:01:34;;;;;;;4.25;2.60;;;17.70;53.70;;;;;;5026624;28;20042;-53
2023/03/29 11:04:21;;;;;;;4.20;2.50;;;17.70;53.20;;;;;;5021973;28;20042;-54
2023/03/29 11:07:20;;;;;;;3.08;2.33;;;17.80;53.30;;;;;;5023876;28;20119;-55
2023/03/29 11:10:00;;;;;;;2.85;1.88;;;17.80;53.20;;;;;;5027520;28;20064;-52
2023/03/29 11:12:46;;;;;;;3.00;2.10;;;17.90;53.80;;;;;;5025452;28;20140;-55
2023/03/29 11:15:21;;;;;;;4.25;2.17;;;18.00;53.60;;;;;;5023883;28;20069;-55
2023/03/29 11:18:27;;;;;;;3.40;1.98;;;18.10;53.40;;;;;;5031536;28;20152;-52
2023/03/29 11:21:25;;;;;;;2.65;2.25;;;18.10;53.40;;;;;;5021338;28;20405;-53
2023/03/29 11:24:17;;;;;;;2.97;2.28;;;18.20;53.40;;;;;;5021878;28;20407;-52
2023/03/29 11:26:55;;;;;;;2.60;2.30;;;18.30;54.00;;;;;;5020531;28;20053;-51
2023/03/29 11:29:33;;;;;;;3.85;1.95;;;18.40;54.10;;;;;;5009006;28;20108;-52
2023/03/29 11:32:25;;;;;;;3.88;2.33;;;18.50;53.70;;;;;;5024837;28;20477;-55
2023/03/29 11:35:15;;;;;;;3.75;2.10;;;18.60;52.90;;;;;;5025322;28;20080;-52
2023/03/29 11:38:09;;;;;;;3.58;1.80;;;18.70;52.80;;;;;;5023149;28;20041;-53
2023/03/29 11:40:45;;;;;;;2.22;1.75;;;18.70;52.50;;;;;;5032057;28;20045;-55
2023/03/29 11:43:21;;;;;;;2.15;1.95;;;18.80;52.60;;;;;;5011661;28;20037;-53
2023/03/29 11:46:22;;;;;;;3.65;1.73;;;18.80;53.00;;;;;;5028486;28;20045;-55
2023/03/29 11:48:55;;;;;;;3.60;2.00;;;18.80;53.00;;;;;;5007502;28;20064;-52
2023/03/29 11:51:27;;;;;;;4.75;1.90;;;18.90;52.90;;;;;;5031630;28;20042;-56
2023/03/29 11:54:14;;;;;;;3.05;2.38;;;18.90;52.80;;;;;;5022692;28;20042;-55
2023/03/29 11:56:49;;;;;;;4.55;2.05;;;19.00;52.90;;;;;;5022268;28;20049;-55
2023/03/29 11:59:23;;;;;;;2.70;2.47;;;19.00;52.60;;;;;;5018611;28;20506;-52
2023/03/29 12:02:34;;;;;;;4.47;2.72;;;19.10;52.40;;;;;;5020231;28;20058;-56
2023/03/29 12:05:31;;;;;;;4.97;2.65;;;19.10;52.60;;;;;;4968837;28;20138;-51
2023/03/29 12:08:00;;;;;;;2.92;2.40;;;19.10;52.20;;;;;;4966314;28;20047;-53
2023/03/29 12:10:36;;;;;;;4.05;2.60;;;19.20;52.00;;;;;;5005993;28;20601;-55
2023/03/29 12:13:10;;;;;;;4.30;2.40;;;19.20;51.90;;;;;;5029940;28;20033;-55
2023/03/29 12:15:51;;;;;;;4.70;2.35;;;19.20;52.00;;;;;;5028901;28;20041;-54
2023/03/29 12:18:31;;;;;;;3.75;2.05;;;19.30;51.70;;;;;;5020344;28;20050;-54
2023/03/29 12:21:02;;;;;;;3.25;2.50;;;19.20;51.90;;;;;;5027188;28;20033;-55
2023/03/29 12:23:32;;;;;;;2.45;2.25;;;19.20;51.60;;;;;;5021284;28;20045;-56
2023/03/29 12:26:15;;;;;;;5.32;2.60;;;19.30;51.90;;;;;;5029594;28;20056;-52
2023/03/29 12:29:04;;;;;;;3.03;1.83;;;19.30;51.80;;;;;;5029191;28;20049;-53
2023/03/29 12:31:41;;;;;;;3.25;2.40;;;19.30;51.80;;;;;;5021451;28;20045;-51
2023/03/29 12:34:34;;;;;;;3.45;2.55;;;19.40;51.50;;;;;;5026096;28;20091;-55
2023/03/29 12:38:07;;;;;;;4.45;1.95;;;19.40;51.60;;;;;;5019482;28;20096;-53
2023/03/29 12:40:58;;;;;;;3.38;2.00;;;19.40;51.80;;;;;;5017331;28;20102;-54
2023/03/29 12:43:44;;;;;;;2.55;2.00;;;19.50;52.10;;;;;;5018138;28;20136;-54
2023/03/29 12:46:24;;;;;;;4.65;2.35;;;19.50;52.10;;;;;;5025106;28;20042;-54
2023/03/29 12:49:08;;;;;;;2.67;2.10;;;19.60;52.10;;;;;;5021306;28;20125;-55
2023/03/29 12:51:38;;;;;;;5.78;2.30;;;19.70;52.10;;;;;;5022596;28;20121;-54
2023/03/29 12:54:15;;;;;;;2.72;2.03;;;19.80;52.00;;;;;;5027726;28;20493;-56
2023/03/29 12:56:51;;;;;;;2.63;1.80;;;19.80;51.60;;;;;;5017203;28;20042;-54
2023/03/29 12:59:38;;;;;;;2.88;1.98;;;19.80;51.10;;;;;;5019116;28;20096;-53
2023/03/29 13:02:14;;;;;;;2.95;2.15;;;19.90;51.10;;;;;;5013558;28;20038;-55
2023/03/29 13:04:41;;;;;;;2.67;1.63;;;19.90;50.90;;;;;;5021901;28;20558;-55
2023/03/29 13:07:22;;;;;;;1.88;1.42;;;19.80;51.00;;;;;;5012910;28;20046;-54
2023/03/29 13:10:03;;;;;;;2.55;1.95;;;19.80;50.80;;;;;;5010950;28;20050;-55
2023/03/29 13:12:43;;;;;;;2.92;1.70;;;19.80;51.30;;;;;;5020116;28;20563;-53
2023/03/29 13:15:16;;;;;;;3.55;1.20;;;19.80;51.40;;;;;;5018766;28;20053;-54
2023/03/29 13:18:08;;;;;;;1.42;0.98;;;19.90;51.70;;;;;;5015460;28;20049;-53
2023/03/29 13:20:53;;;;;;;1.27;1.17;;;20.00;51.40;;;;;;5018409;28;20049;-54
2023/03/29 13:23:30;;;;;;;1.42;1.33;;;20.10;51.30;;;;;;5023785;28;20069;-55
2023/03/29 13:26:16;;;;;;;3.25;1.52;;;20.20;51.40;;;;;;5013662;28;20696;-58
2023/03/29 13:28:54;;;;;;;1.65;1.33;;;20.40;51.70;;;;;;5043596;28;20064;-55
2023/03/29 13:31:37;;;;;;;1.83;1.40;;;20.60;51.30;;;;;;5023033;28;20055;-54
2023/03/29 13:34:45;;;;;;;1.17;1.07;;;20.70;50.80;;;;;;5030430;28;20594;-54
2023/03/29 13:37:23;;;;;;;2.63;1.30;;;20.80;50.30;;;;;;5015197;28;20041;-52
2023/03/29 13:39:55;;;;;;;2.25;1.40;;;21.00;50.10;;;;;;5025144;28;20056;-54